createdAt,value
2023-01-15T00:03:59.213Z,3.03
2023-01-15T00:09:01.637Z,2.70
2023-01-15T00:14:07.809Z,3.22
2023-01-15T00:19:12.207Z,2.60
2023-01-15T00:24:33.510Z,2.47
2023-01-15T00:29:40.728Z,2.40
2023-01-15T00:34:43.068Z,2.38
2023-01-15T00:39:46.455Z,2.20
2023-01-15T00:44:48.999Z,2.83
2023-01-15T00:49:51.783Z,2.50
2023-01-15T00:54:54.372Z,2.57
2023-01-15T00:59:56.775Z,2.15
2023-01-15T01:04:59.221Z,2.50
2023-01-15T01:10:01.622Z,3.15
2023-01-15T01:15:04.509Z,2.45
2023-01-15T01:20:07.447Z,2.73
2023-01-15T01:25:10.377Z,2.10
2023-01-15T01:30:13.665Z,1.97
2023-01-15T01:35:17.121Z,2.00
2023-01-15T01:40:19.780Z,2.15
2023-01-15T01:45:26.741Z,1.97
2023-01-15T01:50:30.202Z,2.10
2023-01-15T01:55:35.441Z,2.40
2023-01-15T02:00:39.585Z,2.15
2023-01-15T02:05:47.830Z,2.08
2023-01-15T02:10:53.432Z,2.30
2023-01-15T02:16:08.871Z,2.47
2023-01-15T02:21:40.167Z,2.85
2023-01-15T02:27:07.831Z,2.47
2023-01-15T02:32:16.501Z,2.85
2023-01-15T02:37:24.986Z,2.55
2023-01-15T02:42:30.561Z,2.65
2023-01-15T02:47:35.506Z,2.60
2023-01-15T02:52:47.832Z,2.25
2023-01-15T02:57:57.086Z,2.28
2023-01-15T03:03:10.445Z,2.33
2023-01-15T03:13:38.182Z,2.08
2023-01-15T03:19:07.533Z,2.05
2023-01-15T03:24:13.411Z,1.88
2023-01-15T03:29:17.133Z,2.00
2023-01-15T03:34:19.931Z,2.40
2023-01-15T03:39:23.626Z,2.78
2023-01-15T03:44:41.115Z,2.58
2023-01-15T03:49:50.811Z,2.63
2023-01-15T03:55:16.848Z,2.50
2023-01-15T04:00:34.528Z,2.00
2023-01-15T04:05:37.902Z,2.13
2023-01-15T04:10:55.730Z,1.90
2023-01-15T04:16:02.390Z,2.40
2023-01-15T04:21:05.619Z,2.40
2023-01-15T04:26:10.151Z,1.90
2023-01-15T04:31:12.515Z,2.00
2023-01-15T04:36:15.106Z,2.33
2023-01-15T04:41:36.108Z,2.28
2023-01-15T04:46:44.120Z,2.22
2023-01-15T04:51:46.568Z,1.92
2023-01-15T04:56:51.734Z,1.75
2023-01-15T05:02:03.729Z,1.73
2023-01-15T05:07:08.970Z,1.90
2023-01-15T05:12:11.501Z,1.70
2023-01-15T05:17:15.023Z,1.80
2023-01-15T05:22:17.497Z,1.77
2023-01-15T05:27:19.837Z,1.85
2023-01-15T05:32:22.275Z,1.90
2023-01-15T05:37:24.562Z,2.20
2023-01-15T05:42:30.821Z,2.17
2023-01-15T05:47:33.293Z,2.20
2023-01-15T05:52:38.818Z,2.08
2023-01-15T05:57:41.156Z,1.80
2023-01-15T06:02:43.509Z,2.00
2023-01-15T06:07:50.179Z,2.40
2023-01-15T06:12:52.742Z,2.10
2023-01-15T06:17:55.135Z,2.28
2023-01-15T06:22:59.541Z,2.40
2023-01-15T06:28:01.920Z,2.20
2023-01-15T06:33:04.971Z,1.63
2023-01-15T06:38:07.320Z,2.00
2023-01-15T06:43:31.238Z,1.95
2023-01-15T06:48:33.867Z,1.90
2023-01-15T06:53:36.269Z,1.88
2023-01-15T06:58:38.663Z,2.05
2023-01-15T07:03:45.895Z,1.90
2023-01-15T07:08:48.357Z,2.72
2023-01-15T07:14:05.987Z,2.92
2023-01-15T07:19:09.108Z,3.40
2023-01-15T07:24:12.362Z,3.20
2023-01-15T07:29:15.160Z,4.85
2023-01-15T07:34:19.690Z,6.13
2023-01-15T07:39:22.249Z,7.40
2023-01-15T07:44:43.087Z,5.32
2023-01-15T07:49:46.962Z,5.03
2023-01-15T07:54:50.450Z,3.72
2023-01-15T07:59:52.924Z,3.90
2023-01-15T08:04:55.230Z,3.80
2023-01-15T08:09:57.546Z,2.50
2023-01-15T08:15:14.921Z,6.32
2023-01-15T08:20:20.245Z,2.28
2023-01-15T08:25:25.302Z,8.85
2023-01-15T08:30:28.793Z,8.57
2023-01-15T08:40:56.557Z,2.80
2023-01-15T08:46:01.564Z,2.33
2023-01-15T08:51:05.793Z,2.15
2023-01-15T08:56:19.104Z,2.10
2023-01-15T09:01:21.610Z,4.15
2023-01-15T09:06:24.108Z,2.17
2023-01-15T09:11:26.875Z,1.30
2023-01-15T09:16:31.917Z,1.10
2023-01-15T09:21:34.944Z,1.23
2023-01-15T09:26:38.780Z,2.17
2023-01-15T09:31:41.514Z,1.60
2023-01-15T09:36:46.772Z,2.80
2023-01-15T09:42:13.486Z,1.63
2023-01-15T09:47:34.302Z,30.88
2023-01-15T09:52:50.280Z,28.90
2023-01-15T09:57:55.446Z,10.43
2023-01-15T10:03:29.973Z,6.30
2023-01-15T10:08:43.850Z,6.72
2023-01-15T10:18:56.076Z,9.43
2023-01-15T10:24:19.397Z,14.50
2023-01-15T10:29:45.960Z,30.30
2023-01-15T10:35:01.824Z,22.75
2023-01-15T10:40:43.480Z,12.48
2023-01-15T10:45:56.779Z,12.35
2023-01-15T10:51:02.440Z,14.93
2023-01-15T10:56:13.958Z,20.35
2023-01-15T11:01:19.874Z,18.38
2023-01-15T11:06:23.907Z,10.98
2023-01-15T11:11:54.011Z,13.32
2023-01-15T11:17:08.307Z,13.00
2023-01-15T11:22:10.844Z,9.30
2023-01-15T11:27:33.483Z,14.60
2023-01-15T11:32:37.897Z,23.13
2023-01-15T11:37:41.427Z,19.92
2023-01-15T11:43:06.547Z,19.25
2023-01-15T11:48:39.791Z,19.88
2023-01-15T11:53:49.379Z,21.47
2023-01-15T11:58:56.833Z,24.80
2023-01-15T12:04:24.907Z,21.80
2023-01-15T12:09:57.917Z,20.35
2023-01-15T12:15:35.191Z,22.42
2023-01-15T12:20:56.766Z,26.95
2023-01-15T12:26:28.096Z,18.55
2023-01-15T12:31:44.394Z,31.98
2023-01-15T12:37:06.831Z,50.15
2023-01-15T12:42:30.447Z,36.45
2023-01-15T12:47:44.275Z,20.83
2023-01-15T12:52:48.821Z,15.13
2023-01-15T12:57:55.335Z,17.38
2023-01-15T13:03:15.552Z,23.20
2023-01-15T13:08:22.991Z,18.63
2023-01-15T13:13:33.468Z,14.20
2023-01-15T13:18:35.841Z,11.52
2023-01-15T13:23:52.159Z,28.33
2023-01-15T13:29:04.274Z,17.15
2023-01-15T13:34:33.116Z,13.23
2023-01-15T13:39:42.090Z,13.63
2023-01-15T13:44:50.493Z,10.02
2023-01-15T13:49:56.909Z,9.75
2023-01-15T13:55:20.560Z,10.50
2023-01-15T14:00:35.040Z,9.60
2023-01-15T14:05:55.526Z,9.35
2023-01-15T14:10:58.152Z,10.77
2023-01-15T14:16:18.134Z,9.75
2023-01-15T14:21:38.154Z,9.75
2023-01-15T14:26:54.292Z,7.75
2023-01-15T14:32:26.012Z,7.97
2023-01-15T14:37:51.511Z,8.60
2023-01-15T14:43:01.716Z,9.43
2023-01-15T14:48:24.027Z,12.88
2023-01-15T14:53:38.886Z,10.90
2023-01-15T14:58:55.650Z,9.30
2023-01-15T15:04:36.905Z,10.88
2023-01-15T15:09:46.242Z,13.48
2023-01-15T15:14:59.633Z,14.40
2023-01-15T15:20:23.152Z,15.57
2023-01-15T15:25:36.525Z,22.95
2023-01-15T15:30:45.431Z,19.17
2023-01-15T15:35:53.453Z,20.33
2023-01-15T15:41:02.096Z,24.05
2023-01-15T15:46:39.631Z,24.45
2023-01-15T15:51:53.396Z,23.30
2023-01-15T16:02:21.622Z,18.15
2023-01-15T16:07:29.817Z,15.95
2023-01-15T16:12:34.773Z,16.90
2023-01-15T16:17:39.581Z,12.57
2023-01-15T16:22:46.625Z,14.27
2023-01-15T16:27:49.488Z,12.93
2023-01-15T16:32:53.552Z,17.20
2023-01-15T16:37:58.878Z,12.23
2023-01-15T16:43:04.929Z,14.40
2023-01-15T16:48:07.477Z,18.02
2023-01-15T16:53:36.049Z,16.23
2023-01-15T16:58:41.599Z,13.75
2023-01-15T17:03:43.971Z,19.67
2023-01-15T17:08:49.748Z,17.17
2023-01-15T17:13:52.584Z,20.52
2023-01-15T17:18:55.568Z,31.77
2023-01-15T17:24:00.061Z,24.90
2023-01-15T17:29:02.579Z,36.17
2023-01-15T17:34:05.160Z,26.67
2023-01-15T17:39:12.991Z,19.70
2023-01-15T17:44:17.001Z,16.88
2023-01-15T17:49:19.498Z,12.60
2023-01-15T17:54:41.945Z,12.88
2023-01-15T18:00:04.231Z,10.90
2023-01-15T18:05:26.331Z,11.07
2023-01-15T18:10:28.760Z,17.42
2023-01-15T18:15:31.264Z,28.85
2023-01-15T18:20:34.003Z,20.10
2023-01-15T18:25:36.634Z,21.88
2023-01-15T18:30:39.067Z,13.20
2023-01-15T18:35:41.459Z,11.15
2023-01-15T18:40:43.923Z,15.25
2023-01-15T18:46:13.342Z,14.75
2023-01-15T18:51:15.748Z,15.27
2023-01-15T18:56:38.024Z,18.25
2023-01-15T19:01:41.692Z,16.65
2023-01-15T19:06:44.440Z,16.63
2023-01-15T19:11:47.794Z,19.10
2023-01-15T19:17:09.154Z,31.55
2023-01-15T19:22:30.546Z,21.38
2023-01-15T19:27:32.964Z,25.00
2023-01-15T19:32:35.710Z,12.65
2023-01-15T19:37:39.950Z,9.43
2023-01-15T19:43:01.225Z,13.15
2023-01-15T19:48:22.402Z,10.90
2023-01-15T19:53:25.184Z,11.48
2023-01-15T19:58:27.698Z,10.32
2023-01-15T20:03:31.843Z,10.07
2023-01-15T20:08:34.736Z,10.68
2023-01-15T20:13:52.213Z,9.93
2023-01-15T20:18:58.264Z,6.47
2023-01-15T20:24:03.473Z,15.45
2023-01-15T20:29:06.082Z,9.70
2023-01-15T20:34:08.433Z,7.10
2023-01-15T20:39:10.967Z,5.90
2023-01-15T20:44:35.111Z,5.30
2023-01-15T20:49:40.044Z,3.80
2023-01-15T20:54:44.958Z,5.32
2023-01-15T20:59:47.919Z,6.55
2023-01-15T21:04:50.633Z,6.25
2023-01-15T21:09:53.224Z,7.17
2023-01-15T21:14:55.543Z,7.70
2023-01-15T21:19:57.914Z,8.73
2023-01-15T21:25:00.284Z,22.17
2023-01-15T21:30:04.979Z,18.73
2023-01-15T21:35:07.844Z,21.65
2023-01-15T21:40:10.954Z,12.23
2023-01-15T21:45:13.374Z,15.68
2023-01-15T21:50:17.786Z,17.13
2023-01-15T21:55:20.273Z,17.50
2023-01-15T22:00:22.757Z,17.45
2023-01-15T22:05:25.229Z,13.95
2023-01-15T22:10:27.523Z,14.65
2023-01-15T22:15:29.933Z,18.20
2023-01-15T22:20:32.725Z,16.52
2023-01-15T22:25:35.422Z,15.37
2023-01-15T22:30:38.508Z,15.55
2023-01-15T22:35:40.892Z,14.75
2023-01-15T22:40:43.309Z,11.32
2023-01-15T22:45:45.595Z,11.40
2023-01-15T22:50:48.205Z,10.63
2023-01-15T22:55:57.943Z,13.55
2023-01-15T23:01:00.593Z,8.23
2023-01-15T23:06:10.781Z,7.68
2023-01-15T23:11:15.317Z,5.65
2023-01-15T23:16:17.843Z,6.57
2023-01-15T23:21:22.730Z,5.30
2023-01-15T23:26:27.323Z,4.93
2023-01-15T23:31:29.978Z,5.13
2023-01-15T23:36:33.646Z,5.00
2023-01-15T23:47:16.790Z,5.45
2023-01-15T23:52:19.062Z,5.43
2023-01-15T23:57:21.741Z,6.47
